Time;durP1;ratioP1;P1;durP2;ratioP2;P2;SDS_P1;SDS_P2;PMS_P1;PMS_P2;Temp;Humidity;BMP_temperature;BMP_pressure;BME280_temperature;BME280_humidity;BME280_pressure;Samples;Min_cycle;Max_cycle;Signal;HPM_P1;HPM_P2
2023/10/26 00:00:32;;;;;;;1.05;0.60;;;9.30;99.90;;;;;;2060013;28;20233;-72
2023/10/26 00:01:33;;;;;;;1.23;0.60;;;9.30;99.90;;;;;;2058076;28;20225;-72
2023/10/26 00:02:33;;;;;;;0.80;0.60;;;9.30;99.90;;;;;;2053534;28;20289;-72
2023/10/26 00:03:34;;;;;;;1.23;0.60;;;9.30;99.90;;;;;;2054198;28;20231;-72
2023/10/26 00:04:35;;;;;;;2.23;0.63;;;9.30;99.90;;;;;;2069135;28;20691;-72
2023/10/26 00:05:35;;;;;;;2.33;0.83;;;9.30;99.90;;;;;;2059455;28;20395;-72
2023/10/26 00:06:36;;;;;;;0.70;0.60;;;9.30;99.90;;;;;;2050262;28;20223;-72
2023/10/26 00:07:36;;;;;;;0.87;0.70;;;9.30;99.90;;;;;;2054688;28;20227;-72
2023/10/26 00:08:37;;;;;;;2.30;0.70;;;9.30;99.90;;;;;;2052272;28;20234;-71
2023/10/26 00:09:37;;;;;;;1.13;0.60;;;9.30;99.90;;;;;;2057498;28;20258;-71
2023/10/26 00:10:39;;;;;;;3.03;0.70;;;9.30;99.90;;;;;;2054016;28;20768;-72
2023/10/26 00:11:40;;;;;;;1.23;0.70;;;9.30;99.90;;;;;;2051047;28;20334;-72
2023/10/26 00:12:40;;;;;;;2.47;0.77;;;9.30;99.90;;;;;;2050522;28;20254;-72
2023/10/26 00:13:41;;;;;;;0.87;0.50;;;9.30;99.90;;;;;;2054421;28;20230;-72
2023/10/26 00:14:41;;;;;;;1.60;0.80;;;9.30;99.90;;;;;;2054969;28;20709;-72
2023/10/26 00:15:42;;;;;;;1.47;0.60;;;9.20;99.90;;;;;;2042821;28;20239;-72
2023/10/26 00:16:43;;;;;;;1.07;0.70;;;9.20;99.90;;;;;;2041514;28;20323;-72
2023/10/26 00:17:43;;;;;;;1.83;0.67;;;9.20;99.90;;;;;;2049802;28;20740;-72
2023/10/26 00:18:44;;;;;;;0.90;0.70;;;9.20;99.90;;;;;;2048653;28;20242;-71
2023/10/26 00:19:45;;;;;;;1.33;0.67;;;9.20;99.90;;;;;;2054447;28;20267;-72
2023/10/26 00:20:45;;;;;;;1.47;0.70;;;9.20;99.90;;;;;;2051664;28;20262;-72
2023/10/26 00:21:46;;;;;;;1.57;0.60;;;9.20;99.90;;;;;;2054253;28;20605;-72
2023/10/26 00:22:46;;;;;;;2.00;0.80;;;9.20;99.90;;;;;;2049304;28;20657;-72
2023/10/26 00:23:47;;;;;;;0.60;0.60;;;9.20;99.90;;;;;;2048857;28;20265;-72
2023/10/26 00:24:49;;;;;;;1.23;0.70;;;9.20;99.90;;;;;;2054313;28;20231;-72
2023/10/26 00:25:49;;;;;;;2.88;0.57;;;9.20;99.90;;;;;;2054654;28;20713;-72
2023/10/26 00:26:50;;;;;;;1.37;0.70;;;9.20;99.90;;;;;;2055060;28;20245;-71
2023/10/26 00:27:52;;;;;;;2.03;0.60;;;9.20;99.90;;;;;;2052388;28;20239;-72
2023/10/26 00:28:52;;;;;;;1.00;0.73;;;9.20;99.90;;;;;;2052326;28;20231;-71
2023/10/26 00:29:53;;;;;;;2.53;0.77;;;9.10;99.90;;;;;;2052751;28;20235;-71
2023/10/26 00:30:53;;;;;;;1.53;0.70;;;9.10;99.90;;;;;;2051469;28;20235;-72
2023/10/26 00:31:54;;;;;;;1.47;0.70;;;9.10;99.90;;;;;;2043454;28;20860;-72
2023/10/26 00:32:54;;;;;;;3.53;0.90;;;9.10;99.90;;;;;;2055045;28;20259;-71
2023/10/26 00:33:55;;;;;;;1.43;0.70;;;9.00;99.90;;;;;;2054416;28;20230;-71
2023/10/26 00:34:56;;;;;;;2.03;0.60;;;9.00;99.90;;;;;;2047722;28;20270;-71
2023/10/26 00:35:56;;;;;;;1.20;0.67;;;9.00;99.90;;;;;;2051143;28;20235;-71
2023/10/26 00:36:57;;;;;;;0.97;0.67;;;9.00;99.90;;;;;;2057937;28;20237;-72
2023/10/26 00:37:57;;;;;;;1.60;0.60;;;8.90;99.90;;;;;;2059519;28;20329;-72
2023/10/26 00:38:59;;;;;;;1.07;0.80;;;8.90;99.90;;;;;;2070210;28;20249;-72
2023/10/26 00:39:59;;;;;;;1.70;0.85;;;8.90;99.90;;;;;;2059226;28;20233;-72
2023/10/26 00:41:00;;;;;;;1.23;0.60;;;8.90;99.90;;;;;;2063302;28;20276;-72
2023/10/26 00:42:00;;;;;;;2.30;0.80;;;8.90;99.90;;;;;;2059521;28;20222;-73
2023/10/26 00:43:02;;;;;;;4.40;0.97;;;8.90;99.90;;;;;;2063815;28;20673;-72
2023/10/26 00:44:03;;;;;;;1.65;0.50;;;8.90;99.90;;;;;;2060678;28;20195;-72
2023/10/26 00:45:05;;;;;;;2.58;0.80;;;8.80;99.90;;;;;;2060273;28;20680;-72
2023/10/26 00:46:10;;;;;;;2.53;0.80;;;8.80;99.90;;;;;;2063636;28;20200;-72
2023/10/26 00:47:11;;;;;;;1.90;0.80;;;8.80;99.90;;;;;;2062219;28;20187;-72
2023/10/26 00:48:11;;;;;;;1.83;0.70;;;8.80;99.90;;;;;;2060005;28;20214;-72
2023/10/26 00:49:15;;;;;;;2.13;0.60;;;8.80;99.90;;;;;;2061120;28;20201;-71
2023/10/26 00:50:16;;;;;;;1.30;0.77;;;8.80;99.90;;;;;;2067836;28;20296;-73
2023/10/26 00:51:17;;;;;;;1.80;0.73;;;8.80;99.90;;;;;;2067020;28;20240;-72
2023/10/26 00:52:18;;;;;;;2.00;0.70;;;8.80;99.90;;;;;;2062253;28;20186;-72
2023/10/26 00:53:20;;;;;;;1.93;0.90;;;8.80;99.90;;;;;;2061721;28;20202;-72
2023/10/26 00:54:21;;;;;;;1.17;0.70;;;8.80;99.90;;;;;;2068757;28;21027;-72
2023/10/26 00:55:24;;;;;;;0.93;0.77;;;8.80;99.90;;;;;;2064520;28;20256;-72
2023/10/26 00:56:26;;;;;;;1.00;0.70;;;8.90;99.90;;;;;;2062925;28;20288;-71
2023/10/26 00:57:27;;;;;;;2.03;0.70;;;8.90;99.90;;;;;;2060040;28;20671;-71
2023/10/26 00:58:29;;;;;;;1.53;0.80;;;8.90;99.90;;;;;;2061659;28;20265;-71
2023/10/26 00:59:30;;;;;;;2.25;0.60;;;8.90;99.90;;;;;;2061961;28;20244;-71
2023/10/26 01:00:32;;;;;;;3.53;1.03;;;8.90;99.90;;;;;;2070586;28;20239;-72
2023/10/26 01:01:34;;;;;;;2.58;1.02;;;8.90;99.90;;;;;;2060621;28;20468;-72
2023/10/26 01:02:36;;;;;;;2.05;0.77;;;8.90;99.90;;;;;;2060959;28;20226;-72
2023/10/26 01:03:38;;;;;;;1.63;0.82;;;8.80;99.90;;;;;;2060499;28;20241;-72
2023/10/26 01:04:39;;;;;;;4.63;1.00;;;8.80;99.90;;;;;;2062690;28;20234;-72
2023/10/26 01:05:40;;;;;;;0.90;0.70;;;8.80;99.90;;;;;;2060712;28;20246;-72
2023/10/26 01:06:41;;;;;;;2.13;0.80;;;8.80;99.90;;;;;;2060518;28;20885;-73
2023/10/26 01:07:42;;;;;;;1.70;1.00;;;8.90;99.90;;;;;;2062270;28;20608;-72
2023/10/26 01:08:42;;;;;;;2.13;0.70;;;8.90;99.90;;;;;;2069249;28;20238;-72
2023/10/26 01:09:43;;;;;;;1.80;0.70;;;8.90;99.90;;;;;;2077763;28;20304;-72
2023/10/26 01:10:44;;;;;;;2.07;0.83;;;8.80;99.90;;;;;;2068553;28;20406;-71
2023/10/26 01:11:45;;;;;;;1.15;0.70;;;8.80;99.90;;;;;;2064603;28;20317;-72
2023/10/26 01:12:46;;;;;;;1.77;0.70;;;8.80;99.90;;;;;;2062402;28;20234;-72
2023/10/26 01:13:47;;;;;;;2.40;0.77;;;8.80;99.90;;;;;;2063750;28;20225;-72
2023/10/26 01:14:48;;;;;;;1.00;0.70;;;8.80;99.90;;;;;;2063411;28;20280;-72
2023/10/26 01:15:48;;;;;;;2.60;0.80;;;8.80;99.90;;;;;;2061337;28;20260;-72
2023/10/26 01:16:49;;;;;;;1.50;0.77;;;8.80;99.90;;;;;;2059357;28;20230;-72
2023/10/26 01:17:50;;;;;;;1.60;0.80;;;8.80;99.90;;;;;;2058356;28;20237;-73
2023/10/26 01:18:50;;;;;;;2.43;0.90;;;8.80;99.90;;;;;;2059474;28;20325;-72
2023/10/26 01:19:51;;;;;;;2.77;1.00;;;8.80;99.90;;;;;;2058777;28;20239;-72
2023/10/26 01:20:53;;;;;;;1.60;0.80;;;8.80;99.90;;;;;;2060521;28;20238;-72
2023/10/26 01:21:53;;;;;;;2.95;0.90;;;8.90;99.90;;;;;;2063228;28;20268;-73
2023/10/26 01:22:54;;;;;;;4.60;1.00;;;8.80;99.90;;;;;;2059426;28;20234;-73
2023/10/26 01:23:55;;;;;;;1.97;0.90;;;8.90;99.90;;;;;;2062378;28;20238;-72
2023/10/26 01:24:56;;;;;;;1.30;0.80;;;8.80;99.90;;;;;;2062495;28;20727;-73
2023/10/26 01:25:58;;;;;;;1.57;0.77;;;8.70;99.90;;;;;;2059363;28;20273;-72
2023/10/26 01:26:59;;;;;;;3.35;0.82;;;8.80;99.90;;;;;;2057918;28;20279;-73
2023/10/26 01:27:59;;;;;;;2.90;0.80;;;8.70;99.90;;;;;;2059373;28;20712;-73
2023/10/26 01:29:04;;;;;;;1.53;0.80;;;8.70;99.90;;;;;;2062873;28;20261;-72
2023/10/26 01:30:05;;;;;;;1.40;0.80;;;8.70;99.90;;;;;;2062388;28;20922;-72
2023/10/26 01:31:06;;;;;;;1.95;0.80;;;8.70;99.90;;;;;;2060950;28;20207;-72
2023/10/26 01:32:06;;;;;;;3.07;0.87;;;8.70;99.90;;;;;;2054069;28;20641;-72
2023/10/26 01:33:07;;;;;;;1.20;0.70;;;8.70;99.90;;;;;;2059276;28;20190;-72
2023/10/26 01:34:08;;;;;;;1.57;1.00;;;8.80;99.90;;;;;;2059997;28;20273;-72
2023/10/26 01:35:08;;;;;;;3.33;1.00;;;8.80;99.90;;;;;;2061560;28;20210;-72
2023/10/26 01:36:09;;;;;;;3.37;0.80;;;8.80;99.90;;;;;;2060810;28;20627;-72
2023/10/26 01:37:09;;;;;;;0.80;0.70;;;8.80;99.90;;;;;;2058508;28;20194;-72
2023/10/26 01:38:10;;;;;;;3.17;0.90;;;8.90;99.90;;;;;;2061791;28;20191;-72
2023/10/26 01:39:12;;;;;;;2.53;1.07;;;8.90;99.90;;;;;;2061933;28;20186;-72
2023/10/26 01:40:13;;;;;;;2.03;0.90;;;8.80;99.90;;;;;;2057547;28;20186;-72
2023/10/26 01:41:14;;;;;;;1.43;0.80;;;8.80;99.90;;;;;;2056466;28;20629;-72
2023/10/26 01:42:15;;;;;;;2.90;0.80;;;8.90;99.90;;;;;;2054550;28;20186;-72
2023/10/26 01:43:15;;;;;;;2.07;1.00;;;8.80;99.90;;;;;;2055043;28;20270;-72
2023/10/26 01:44:16;;;;;;;2.53;0.97;;;8.80;99.90;;;;;;2047079;28;20197;-72
2023/10/26 01:45:16;;;;;;;1.60;0.80;;;8.80;99.90;;;;;;2054240;28;20213;-72
2023/10/26 01:46:17;;;;;;;1.57;0.80;;;8.90;99.90;;;;;;2054684;28;20281;-72
2023/10/26 01:47:17;;;;;;;1.13;0.80;;;9.00;99.90;;;;;;2047162;28;21144;-72
2023/10/26 01:48:18;;;;;;;1.40;0.80;;;9.00;99.90;;;;;;2046148;28;20191;-72
2023/10/26 01:49:19;;;;;;;1.17;0.70;;;9.10;99.90;;;;;;2046155;28;20218;-72
2023/10/26 01:50:20;;;;;;;1.10;0.77;;;9.10;99.90;;;;;;2047238;28;20186;-72
2023/10/26 01:51:21;;;;;;;1.98;1.00;;;9.10;99.90;;;;;;2054095;28;20235;-72
2023/10/26 01:52:21;;;;;;;1.83;0.80;;;9.20;99.90;;;;;;2049575;28;20258;-72
2023/10/26 01:53:23;;;;;;;1.33;0.80;;;9.20;99.90;;;;;;2047304;28;20245;-72
2023/10/26 01:54:24;;;;;;;1.92;0.80;;;9.20;99.90;;;;;;2054829;28;20270;-72
2023/10/26 01:55:24;;;;;;;1.67;1.00;;;9.20;99.90;;;;;;2053612;28;20243;-72
2023/10/26 01:56:25;;;;;;;2.43;0.90;;;9.20;99.90;;;;;;2050528;28;20281;-72
2023/10/26 01:57:26;;;;;;;1.23;0.90;;;9.20;99.90;;;;;;2053130;28;20234;-72
2023/10/26 01:58:26;;;;;;;1.87;0.90;;;9.10;99.90;;;;;;2052714;28;20871;-72
2023/10/26 01:59:27;;;;;;;1.73;0.80;;;9.00;99.90;;;;;;2054550;28;20234;-72
2023/10/26 02:00:27;;;;;;;2.37;0.80;;;9.10;99.90;;;;;;2048200;28;20235;-73
2023/10/26 02:01:28;;;;;;;2.20;0.90;;;9.00;99.90;;;;;;2054150;28;20713;-72
2023/10/26 02:02:28;;;;;;;0.97;0.70;;;9.10;99.90;;;;;;2061995;28;20257;-72
2023/10/26 02:03:29;;;;;;;3.03;0.90;;;9.10;99.90;;;;;;2053972;28;20262;-72
2023/10/26 02:04:29;;;;;;;1.57;0.90;;;9.10;99.90;;;;;;2053969;28;20241;-72
2023/10/26 02:05:30;;;;;;;1.53;0.90;;;9.00;99.90;;;;;;2052452;28;20672;-72
2023/10/26 02:06:31;;;;;;;1.17;0.70;;;9.10;99.90;;;;;;2055453;28;20265;-72
2023/10/26 02:07:31;;;;;;;1.10;0.70;;;9.10;99.90;;;;;;2056440;28;20261;-72
2023/10/26 02:08:33;;;;;;;2.37;1.00;;;9.10;99.90;;;;;;2053218;28;20689;-72
2023/10/26 02:09:33;;;;;;;3.47;1.10;;;9.00;99.90;;;;;;2049388;28;20283;-72
2023/10/26 02:10:34;;;;;;;1.20;0.83;;;9.00;99.90;;;;;;2050561;28;20241;-72
2023/10/26 02:11:35;;;;;;;2.00;1.00;;;9.00;99.90;;;;;;2053722;28;20238;-72
2023/10/26 02:12:36;;;;;;;2.47;1.10;;;9.00;99.90;;;;;;2054105;28;20991;-72
2023/10/26 02:13:36;;;;;;;1.63;0.90;;;8.90;99.90;;;;;;2056146;28;20261;-72
2023/10/26 02:14:37;;;;;;;3.23;0.80;;;8.90;99.90;;;;;;2049762;28;20246;-72
2023/10/26 02:15:38;;;;;;;2.05;0.82;;;8.80;99.90;;;;;;2045214;28;20508;-72
2023/10/26 02:16:39;;;;;;;1.90;0.80;;;8.80;99.90;;;;;;2058104;28;20230;-72
2023/10/26 02:17:39;;;;;;;1.20;0.70;;;8.90;99.90;;;;;;2059931;28;20226;-72
2023/10/26 02:18:44;;;;;;;0.80;0.80;;;8.80;99.90;;;;;;2055080;28;20693;-72
2023/10/26 02:19:45;;;;;;;2.55;0.75;;;8.80;99.90;;;;;;2049651;28;20227;-72
2023/10/26 02:20:45;;;;;;;1.57;0.80;;;8.80;99.90;;;;;;2050801;28;20238;-72
2023/10/26 02:21:46;;;;;;;2.70;0.87;;;8.80;99.90;;;;;;2050763;28;20321;-72
2023/10/26 02:22:47;;;;;;;2.67;0.90;;;8.90;99.90;;;;;;2051406;28;20234;-72
2023/10/26 02:23:47;;;;;;;2.20;0.90;;;8.90;99.90;;;;;;2044830;29;20726;-72
2023/10/26 02:24:48;;;;;;;1.87;0.73;;;8.90;99.90;;;;;;2053179;28;20254;-72
2023/10/26 02:25:48;;;;;;;2.90;0.90;;;8.90;99.90;;;;;;2050339;28;20245;-72
2023/10/26 02:26:49;;;;;;;2.13;0.90;;;8.80;99.90;;;;;;2050878;28;21019;-72
2023/10/26 02:27:49;;;;;;;2.63;0.90;;;8.80;99.90;;;;;;2052984;28;20709;-73
2023/10/26 02:28:50;;;;;;;0.93;0.60;;;8.80;99.90;;;;;;2044599;28;20242;-72
2023/10/26 02:29:50;;;;;;;2.30;1.03;;;8.90;99.90;;;;;;2052575;28;20234;-72
2023/10/26 02:30:51;;;;;;;1.73;0.73;;;8.90;99.90;;;;;;2045715;29;20237;-72
2023/10/26 02:31:52;;;;;;;0.97;0.80;;;8.90;99.90;;;;;;2042483;28;20761;-72
2023/10/26 02:32:52;;;;;;;1.87;0.93;;;8.90;99.90;;;;;;2050820;28;20258;-72
2023/10/26 02:33:53;;;;;;;3.83;1.03;;;8.90;99.90;;;;;;2053142;28;20235;-72
2023/10/26 02:34:53;;;;;;;1.90;0.93;;;8.90;99.90;;;;;;2052544;28;20293;-72
2023/10/26 02:35:54;;;;;;;2.77;0.90;;;8.90;99.90;;;;;;2053410;28;21051;-72
2023/10/26 02:36:57;;;;;;;2.77;1.00;;;8.90;99.90;;;;;;2053479;28;20273;-72
2023/10/26 02:37:57;;;;;;;0.98;0.80;;;9.00;99.90;;;;;;2050361;28;20231;-72
2023/10/26 02:38:58;;;;;;;1.17;0.80;;;9.00;99.90;;;;;;2049007;28;20266;-72
2023/10/26 02:39:59;;;;;;;2.00;0.80;;;9.00;99.90;;;;;;2046123;28;20267;-72
2023/10/26 02:41:04;;;;;;;2.73;0.90;;;9.00;99.90;;;;;;2054488;28;20227;-73
2023/10/26 02:42:05;;;;;;;2.53;0.90;;;9.10;99.90;;;;;;2052440;28;20693;-72
2023/10/26 02:43:06;;;;;;;3.50;0.80;;;9.20;99.90;;;;;;2054339;28;20206;-72
2023/10/26 02:44:07;;;;;;;3.80;0.85;;;9.20;99.90;;;;;;2050529;28;20429;-72
2023/10/26 02:45:08;;;;;;;1.70;0.83;;;9.20;99.90;;;;;;2048759;28;20199;-72
2023/10/26 02:46:09;;;;;;;1.48;0.90;;;9.20;99.90;;;;;;2051706;28;20194;-72
2023/10/26 02:47:10;;;;;;;3.73;0.90;;;9.20;99.90;;;;;;2052764;28;20191;-72
2023/10/26 02:48:10;;;;;;;1.43;0.90;;;9.20;99.90;;;;;;2053306;28;20222;-72
2023/10/26 02:49:11;;;;;;;1.63;0.90;;;9.10;99.90;;;;;;2050661;28;20278;-72
2023/10/26 02:50:11;;;;;;;1.53;0.90;;;9.10;99.90;;;;;;2047900;28;21123;-72
2023/10/26 02:51:14;;;;;;;2.30;0.87;;;9.20;99.90;;;;;;2048172;28;20229;-72
2023/10/26 02:52:14;;;;;;;0.93;0.80;;;9.20;99.90;;;;;;2060510;28;20194;-72
2023/10/26 02:53:15;;;;;;;1.53;1.00;;;9.20;99.90;;;;;;2066837;28;20232;-72
2023/10/26 02:54:15;;;;;;;1.60;1.00;;;9.20;99.90;;;;;;2068639;28;20181;-72
2023/10/26 02:55:16;;;;;;;2.77;0.83;;;9.20;99.90;;;;;;2065266;28;20248;-71
2023/10/26 02:56:18;;;;;;;1.13;0.90;;;9.20;99.90;;;;;;2066495;28;20193;-72
2023/10/26 02:57:18;;;;;;;0.90;0.80;;;9.30;99.90;;;;;;2053047;28;20183;-71
2023/10/26 02:58:19;;;;;;;1.37;0.93;;;9.30;99.90;;;;;;2049467;28;20199;-71
2023/10/26 02:59:20;;;;;;;1.77;1.10;;;9.40;99.90;;;;;;2052309;28;20180;-71
2023/10/26 03:00:20;;;;;;;1.57;1.00;;;9.40;99.90;;;;;;2048429;28;21945;-71
2023/10/26 03:01:21;;;;;;;1.67;0.97;;;9.30;99.90;;;;;;2061163;28;20261;-71
2023/10/26 03:02:21;;;;;;;2.27;0.90;;;9.30;99.90;;;;;;2059340;28;20226;-71
2023/10/26 03:03:22;;;;;;;1.70;1.00;;;9.30;99.90;;;;;;2065882;28;20743;-71
2023/10/26 03:04:23;;;;;;;3.28;0.90;;;9.30;99.90;;;;;;2060976;28;20807;-71
2023/10/26 03:05:24;;;;;;;1.23;1.00;;;9.20;99.90;;;;;;2053158;28;20318;-71
2023/10/26 03:06:24;;;;;;;1.37;1.00;;;9.30;99.90;;;;;;2053889;28;20234;-71
2023/10/26 03:07:25;;;;;;;2.23;0.90;;;9.30;99.90;;;;;;2053599;28;20246;-71
2023/10/26 03:08:26;;;;;;;1.30;0.80;;;9.30;99.90;;;;;;2053790;28;20310;-71
2023/10/26 03:09:28;;;;;;;1.70;0.70;;;9.30;99.90;;;;;;2051438;28;20259;-71
2023/10/26 03:10:28;;;;;;;2.17;0.80;;;9.40;99.90;;;;;;2061830;28;20774;-71
2023/10/26 03:11:29;;;;;;;1.60;0.80;;;9.50;99.90;;;;;;2053873;28;20230;-71
2023/10/26 03:12:29;;;;;;;2.07;0.80;;;9.50;99.90;;;;;;2056352;28;20241;-71
2023/10/26 03:13:30;;;;;;;2.33;0.90;;;9.50;99.90;;;;;;2060735;28;20624;-71
2023/10/26 03:14:30;;;;;;;3.13;0.87;;;9.50;99.90;;;;;;2061573;28;20260;-71
2023/10/26 03:15:32;;;;;;;1.90;0.90;;;9.60;99.90;;;;;;2060042;28;20230;-71
2023/10/26 03:16:33;;;;;;;2.20;0.90;;;9.60;99.90;;;;;;2061085;28;20233;-74
2023/10/26 03:17:33;;;;;;;2.97;1.25;;;9.60;99.90;;;;;;2058928;28;20272;-71
2023/10/26 03:18:36;;;;;;;3.23;0.97;;;9.70;99.90;;;;;;2066960;28;20232;-71
2023/10/26 03:19:36;;;;;;;2.60;1.08;;;9.70;99.90;;;;;;2071285;28;20248;-72
2023/10/26 03:20:37;;;;;;;1.57;0.77;;;9.80;99.90;;;;;;2061340;28;20253;-72
2023/10/26 03:21:39;;;;;;;2.47;0.90;;;9.90;99.90;;;;;;2059584;28;20281;-72
2023/10/26 03:22:39;;;;;;;3.08;1.10;;;9.90;99.90;;;;;;2061845;28;20239;-72
2023/10/26 03:23:40;;;;;;;0.87;0.80;;;9.90;99.90;;;;;;2058393;28;20260;-71
2023/10/26 03:24:41;;;;;;;2.80;1.10;;;9.90;99.90;;;;;;2053122;28;20696;-72
2023/10/26 03:25:42;;;;;;;1.70;1.00;;;9.90;99.90;;;;;;2060501;28;20320;-72
2023/10/26 03:26:43;;;;;;;1.77;1.10;;;9.90;99.90;;;;;;2058717;28;20282;-72
2023/10/26 03:27:44;;;;;;;1.80;1.00;;;9.80;99.90;;;;;;2055414;28;20301;-72
2023/10/26 03:28:44;;;;;;;1.40;1.07;;;9.80;99.90;;;;;;2061188;28;20256;-72
2023/10/26 03:29:45;;;;;;;2.87;1.30;;;9.80;99.90;;;;;;2063392;28;20283;-72
2023/10/26 03:30:46;;;;;;;2.37;0.90;;;9.80;99.90;;;;;;2063315;28;20267;-72
2023/10/26 03:31:46;;;;;;;3.53;1.30;;;9.80;99.90;;;;;;2061608;28;20232;-72
2023/10/26 03:32:47;;;;;;;1.73;1.00;;;9.80;99.90;;;;;;2064306;28;20257;-72
2023/10/26 03:33:48;;;;;;;2.83;1.20;;;9.90;99.90;;;;;;2056491;28;20243;-72
2023/10/26 03:34:49;;;;;;;2.25;1.02;;;9.80;99.90;;;;;;2059615;28;20313;-72
2023/10/26 03:35:49;;;;;;;1.57;1.23;;;9.70;99.90;;;;;;2060414;28;20245;-72
2023/10/26 03:36:50;;;;;;;3.20;1.20;;;9.70;99.90;;;;;;2067989;28;20226;-73
2023/10/26 03:37:51;;;;;;;1.38;1.10;;;9.70;99.90;;;;;;2064062;28;20230;-72
2023/10/26 03:38:52;;;;;;;1.20;1.10;;;9.70;99.90;;;;;;2063390;28;20233;-72
2023/10/26 03:39:53;;;;;;;2.33;1.20;;;9.60;99.90;;;;;;2060619;28;20258;-72
2023/10/26 03:40:53;;;;;;;4.38;1.52;;;9.60;99.90;;;;;;2062717;28;20234;-72
2023/10/26 03:41:54;;;;;;;1.47;1.17;;;9.50;99.90;;;;;;2062124;28;20237;-72
2023/10/26 03:42:54;;;;;;;3.30;1.27;;;9.50;99.90;;;;;;2062435;28;20253;-72
2023/10/26 03:43:55;;;;;;;2.27;1.20;;;9.50;99.90;;;;;;2054587;28;20230;-72
2023/10/26 03:44:56;;;;;;;3.97;1.03;;;9.50;99.90;;;;;;2052842;28;20238;-72
2023/10/26 03:45:56;;;;;;;4.47;1.27;;;9.60;99.90;;;;;;2058721;28;20636;-72
2023/10/26 03:46:57;;;;;;;3.30;1.33;;;9.70;99.90;;;;;;2060373;28;20234;-72
2023/10/26 03:47:58;;;;;;;5.57;1.20;;;9.70;99.90;;;;;;2062287;28;20604;-72
2023/10/26 03:48:58;;;;;;;3.13;1.43;;;9.80;99.90;;;;;;2047674;28;20236;-72
2023/10/26 03:49:59;;;;;;;4.90;1.27;;;9.80;99.90;;;;;;2051841;28;20727;-72
2023/10/26 03:51:00;;;;;;;3.40;1.50;;;9.80;99.90;;;;;;2054142;28;20230;-72
2023/10/26 03:52:01;;;;;;;1.98;1.20;;;9.80;99.90;;;;;;2051100;28;20310;-73
2023/10/26 03:53:01;;;;;;;3.23;1.83;;;9.80;99.90;;;;;;2051815;28;20301;-73
2023/10/26 03:54:03;;;;;;;4.53;1.90;;;9.80;99.90;;;;;;2055907;28;20178;-73
2023/10/26 03:55:04;;;;;;;2.72;1.80;;;9.90;99.90;;;;;;2050619;28;20196;-72
2023/10/26 03:56:05;;;;;;;2.53;1.88;;;9.80;99.90;;;;;;2050510;28;20207;-73
2023/10/26 03:57:06;;;;;;;2.67;1.70;;;9.80;99.90;;;;;;2054773;28;20202;-72
2023/10/26 03:58:06;;;;;;;1.87;1.40;;;9.80;99.90;;;;;;2054553;28;20288;-72
2023/10/26 03:59:07;;;;;;;3.70;1.60;;;9.80;99.90;;;;;;2054593;28;20468;-72
2023/10/26 04:00:09;;;;;;;2.17;1.70;;;9.70;99.90;;;;;;2054253;28;20202;-72
2023/10/26 04:01:10;;;;;;;2.97;1.90;;;9.70;99.90;;;;;;2059786;28;20222;-72
2023/10/26 04:02:11;;;;;;;2.50;1.60;;;9.70;99.90;;;;;;2054536;28;20191;-72
2023/10/26 04:03:11;;;;;;;3.57;1.50;;;9.70;99.90;;;;;;2050133;28;20502;-72
2023/10/26 04:04:12;;;;;;;3.23;1.50;;;9.70;99.90;;;;;;2045339;28;20271;-72
2023/10/26 04:05:12;;;;;;;4.70;1.50;;;9.70;99.90;;;;;;2054443;28;20183;-73
2023/10/26 04:06:13;;;;;;;2.90;1.70;;;9.70;99.90;;;;;;2048526;28;20202;-72
2023/10/26 04:07:13;;;;;;;2.83;1.40;;;9.70;99.90;;;;;;2052174;28;20201;-72
2023/10/26 04:08:14;;;;;;;3.30;1.70;;;9.80;99.90;;;;;;2051315;28;20191;-72
2023/10/26 04:09:15;;;;;;;2.73;2.20;;;9.70;99.90;;;;;;2052498;28;20749;-72
2023/10/26 04:10:17;;;;;;;2.60;1.90;;;9.70;99.90;;;;;;2055807;28;20199;-72
2023/10/26 04:11:18;;;;;;;2.72;1.90;;;9.70;99.90;;;;;;2050186;28;20875;-72
2023/10/26 04:12:18;;;;;;;3.70;2.70;;;9.70;99.90;;;;;;2054575;28;20202;-72
2023/10/26 04:13:19;;;;;;;4.23;3.17;;;9.60;99.90;;;;;;2061868;28;20186;-72
2023/10/26 04:14:19;;;;;;;5.10;3.03;;;9.70;99.90;;;;;;2054911;28;20199;-72
2023/10/26 04:15:20;;;;;;;3.20;2.50;;;9.70;99.90;;;;;;2062566;28;21714;-72
2023/10/26 04:16:21;;;;;;;5.33;2.80;;;9.70;99.90;;;;;;2057672;28;20294;-72
2023/10/26 04:17:22;;;;;;;3.05;1.90;;;9.70;99.90;;;;;;2051953;28;20219;-72
2023/10/26 04:18:23;;;;;;;2.93;2.30;;;9.60;99.90;;;;;;2062697;28;20250;-72
2023/10/26 04:19:23;;;;;;;2.67;1.97;;;9.50;99.90;;;;;;2059229;28;20214;-72
2023/10/26 04:20:24;;;;;;;3.93;2.30;;;9.40;99.90;;;;;;2051218;28;20215;-72
2023/10/26 04:21:24;;;;;;;4.70;2.20;;;9.50;99.90;;;;;;2050989;28;20223;-72
2023/10/26 04:22:26;;;;;;;3.00;2.37;;;9.50;99.90;;;;;;2061942;28;20236;-72
2023/10/26 04:23:27;;;;;;;4.43;2.40;;;9.50;99.90;;;;;;2054963;28;20218;-72
2023/10/26 04:24:27;;;;;;;3.87;2.40;;;9.50;99.90;;;;;;2061525;28;20230;-73
2023/10/26 04:25:28;;;;;;;2.83;2.50;;;9.60;99.90;;;;;;2059117;28;20242;-73
2023/10/26 04:26:29;;;;;;;3.67;2.60;;;9.60;99.90;;;;;;2062268;28;20249;-73
2023/10/26 04:27:29;;;;;;;3.10;2.50;;;9.70;99.90;;;;;;2062880;28;20276;-73
2023/10/26 04:28:30;;;;;;;4.10;2.60;;;9.70;99.90;;;;;;2059883;28;20261;-73
2023/10/26 04:29:31;;;;;;;4.77;2.70;;;9.80;99.90;;;;;;2058881;28;20592;-73
2023/10/26 04:30:31;;;;;;;4.60;2.70;;;9.80;99.90;;;;;;2059005;28;20273;-73
2023/10/26 04:31:33;;;;;;;4.57;2.70;;;9.70;99.90;;;;;;2059916;28;20214;-73
2023/10/26 04:32:33;;;;;;;4.32;3.10;;;9.70;99.90;;;;;;2058410;28;20231;-74
2023/10/26 04:33:34;;;;;;;4.37;3.80;;;9.70;99.90;;;;;;2062042;28;20225;-73
2023/10/26 04:34:35;;;;;;;4.23;3.80;;;9.70;99.90;;;;;;2063669;28;20691;-73
2023/10/26 04:35:39;;;;;;;3.90;3.50;;;9.70;99.90;;;;;;2059738;28;20238;-73
2023/10/26 04:36:40;;;;;;;5.15;3.60;;;9.70;99.90;;;;;;2066523;28;20275;-73
2023/10/26 04:37:40;;;;;;;4.83;3.00;;;9.60;99.90;;;;;;2069309;28;20636;-73
2023/10/26 04:38:41;;;;;;;4.77;3.00;;;9.60;99.90;;;;;;2061033;28;20218;-73
2023/10/26 04:39:43;;;;;;;2.83;2.50;;;9.60;99.90;;;;;;2058384;28;20219;-73
2023/10/26 04:40:44;;;;;;;4.22;2.70;;;9.60;99.90;;;;;;2062359;28;20222;-74
2023/10/26 04:41:44;;;;;;;3.03;2.20;;;9.60;99.90;;;;;;2059231;28;20218;-73
2023/10/26 04:42:45;;;;;;;2.67;2.20;;;9.70;99.90;;;;;;2060380;28;20772;-74
2023/10/26 04:43:45;;;;;;;4.30;2.60;;;9.70;99.90;;;;;;2059180;28;20281;-73
2023/10/26 04:44:46;;;;;;;2.47;1.90;;;9.60;99.90;;;;;;2058759;28;20732;-73
2023/10/26 04:45:47;;;;;;;4.03;2.27;;;9.70;99.90;;;;;;2058763;28;20281;-74
2023/10/26 04:46:48;;;;;;;5.00;3.30;;;9.60;99.90;;;;;;2058957;28;20281;-73
2023/10/26 04:47:48;;;;;;;3.33;2.70;;;9.60;99.90;;;;;;2063755;28;20232;-73
2023/10/26 04:48:49;;;;;;;3.20;2.60;;;9.70;99.90;;;;;;2061789;28;20234;-73
2023/10/26 04:49:49;;;;;;;4.10;2.80;;;9.70;99.90;;;;;;2061558;28;20222;-73
2023/10/26 04:50:50;;;;;;;2.60;2.17;;;9.70;99.90;;;;;;2059463;28;20231;-75
2023/10/26 04:51:51;;;;;;;3.93;2.20;;;9.80;99.90;;;;;;2059123;28;20219;-73
2023/10/26 04:52:51;;;;;;;4.47;2.33;;;9.70;99.90;;;;;;2060737;28;20265;-73
2023/10/26 04:53:53;;;;;;;19.33;17.30;;;9.70;99.90;;;;;;2061742;28;20226;-73
2023/10/26 04:54:53;;;;;;;23.55;21.17;;;9.70;99.90;;;;;;2059424;28;20226;-73
2023/10/26 04:55:54;;;;;;;2.97;1.90;;;9.80;99.90;;;;;;2061412;28;21023;-73
2023/10/26 04:56:55;;;;;;;4.60;2.70;;;9.70;99.90;;;;;;2058380;28;20667;-73
2023/10/26 04:57:56;;;;;;;5.47;2.30;;;9.60;99.90;;;;;;2059580;28;20230;-73
2023/10/26 04:58:56;;;;;;;2.70;2.20;;;9.60;99.90;;;;;;2059350;28;20223;-73
2023/10/26 04:59:57;;;;;;;3.63;1.97;;;9.60;99.90;;;;;;2061340;28;20588;-73
2023/10/26 05:00:59;;;;;;;1.87;1.57;;;9.60;99.90;;;;;;2060592;28;20233;-73
2023/10/26 05:02:00;;;;;;;1.50;1.40;;;9.60;99.90;;;;;;2060756;28;20221;-73
2023/10/26 05:03:01;;;;;;;4.97;1.30;;;9.60;99.90;;;;;;2061031;28;20264;-74
2023/10/26 05:04:03;;;;;;;1.23;1.13;;;9.60;99.90;;;;;;2063155;28;20224;-72
2023/10/26 05:05:04;;;;;;;1.20;1.10;;;9.50;99.90;;;;;;2056605;28;20194;-73
2023/10/26 05:06:05;;;;;;;1.45;1.30;;;9.50;99.90;;;;;;2062158;28;20731;-73
2023/10/26 05:07:05;;;;;;;1.57;1.20;;;9.50;99.90;;;;;;2061771;28;20198;-73
2023/10/26 05:08:06;;;;;;;1.77;1.27;;;9.50;99.90;;;;;;2062207;28;20198;-73
2023/10/26 05:09:06;;;;;;;2.00;1.10;;;9.60;99.90;;;;;;2062186;28;20182;-73
2023/10/26 05:10:07;;;;;;;1.20;1.10;;;9.60;99.90;;;;;;2062611;28;20188;-73
2023/10/26 05:11:08;;;;;;;1.23;1.13;;;9.60;99.90;;;;;;2058416;28;20197;-73
2023/10/26 05:12:08;;;;;;;1.60;1.13;;;9.50;99.90;;;;;;2062808;28;20587;-73
2023/10/26 05:13:10;;;;;;;1.10;0.83;;;9.20;99.90;;;;;;2060421;28;20190;-73
2023/10/26 05:14:10;;;;;;;1.98;0.95;;;9.10;99.90;;;;;;2060535;28;20681;-73
2023/10/26 05:15:11;;;;;;;1.67;1.00;;;9.00;99.90;;;;;;2062443;28;20277;-73
2023/10/26 05:16:12;;;;;;;1.30;1.20;;;9.00;99.90;;;;;;2062755;28;20201;-73
2023/10/26 05:17:12;;;;;;;1.60;1.10;;;8.90;99.90;;;;;;2069030;28;20241;-73
2023/10/26 05:18:13;;;;;;;1.57;1.10;;;8.90;99.90;;;;;;2060085;28;20193;-73
2023/10/26 05:19:14;;;;;;;2.07;1.20;;;9.00;99.90;;;;;;2062557;28;20186;-72
2023/10/26 05:20:14;;;;;;;1.17;1.07;;;8.90;99.90;;;;;;2060506;28;20185;-73
2023/10/26 05:21:15;;;;;;;1.10;0.97;;;9.00;99.90;;;;;;2062509;28;20190;-73